sensor_id;sensor_type;location;lat;lon;timestamp;temperature;humidity
13091;DHT22;6611;52.604;13.438;2023-03-01T00:04:39;-2.29;79.44
13091;DHT22;6611;52.604;13.438;2023-03-01T00:09:40;-2.28;79.43
13091;DHT22;6611;52.604;13.438;2023-03-01T00:14:42;-2.21;79.35
13091;DHT22;6611;52.604;13.438;2023-03-01T00:19:45;-2.26;79.45
13091;DHT22;6611;52.604;13.438;2023-03-01T00:24:47;-2.30;79.55
13091;DHT22;6611;52.604;13.438;2023-03-01T00:29:48;-2.32;79.73
13091;DHT22;6611;52.604;13.438;2023-03-01T00:34:51;-2.30;79.58
13091;DHT22;6611;52.604;13.438;2023-03-01T00:39:56;-2.33;79.56
13091;DHT22;6611;52.604;13.438;2023-03-01T00:44:58;-2.25;79.13
13091;DHT22;6611;52.604;13.438;2023-03-01T00:50:01;-2.36;78.79
13091;DHT22;6611;52.604;13.438;2023-03-01T00:55:03;-2.43;79.67
13091;DHT22;6611;52.604;13.438;2023-03-01T01:00:07;-2.50;79.71
13091;DHT22;6611;52.604;13.438;2023-03-01T01:05:11;-2.51;80.10
13091;DHT22;6611;52.604;13.438;2023-03-01T01:10:13;-2.56;80.02
13091;DHT22;6611;52.604;13.438;2023-03-01T01:15:17;-2.65;80.12
13091;DHT22;6611;52.604;13.438;2023-03-01T01:20:20;-2.67;79.99
13091;DHT22;6611;52.604;13.438;2023-03-01T01:25:22;-2.65;80.32
13091;DHT22;6611;52.604;13.438;2023-03-01T01:30:25;-2.67;79.30
13091;DHT22;6611;52.604;13.438;2023-03-01T01:35:28;-2.82;80.09
13091;DHT22;6611;52.604;13.438;2023-03-01T01:40:30;-2.85;80.00
13091;DHT22;6611;52.604;13.438;2023-03-01T01:45:33;-2.93;79.71
13091;DHT22;6611;52.604;13.438;2023-03-01T01:50:38;-2.87;80.12
13091;DHT22;6611;52.604;13.438;2023-03-01T01:55:44;-2.93;80.58
13091;DHT22;6611;52.604;13.438;2023-03-01T02:00:47;-2.91;80.55
13091;DHT22;6611;52.604;13.438;2023-03-01T02:05:55;-2.99;80.07
13091;DHT22;6611;52.604;13.438;2023-03-01T02:10:58;-3.06;80.02
13091;DHT22;6611;52.604;13.438;2023-03-01T02:16:03;-3.02;80.52
13091;DHT22;6611;52.604;13.438;2023-03-01T02:21:29;-3.20;79.79
13091;DHT22;6611;52.604;13.438;2023-03-01T02:26:39;-3.50;80.71
13091;DHT22;6611;52.604;13.438;2023-03-01T02:31:43;-3.50;80.78
13091;DHT22;6611;52.604;13.438;2023-03-01T02:36:47;-3.51;81.40
13091;DHT22;6611;52.604;13.438;2023-03-01T02:41:52;-3.34;80.91
13091;DHT22;6611;52.604;13.438;2023-03-01T02:46:56;-3.30;80.09
13091;DHT22;6611;52.604;13.438;2023-03-01T02:52:12;-3.29;80.83
13091;DHT22;6611;52.604;13.438;2023-03-01T02:57:18;-3.33;80.36
13091;DHT22;6611;52.604;13.438;2023-03-01T03:02:25;-3.37;81.06
13091;DHT22;6611;52.604;13.438;2023-03-01T03:07:39;-3.34;80.44
13091;DHT22;6611;52.604;13.438;2023-03-01T03:12:42;-3.33;80.72
13091;DHT22;6611;52.604;13.438;2023-03-01T03:17:45;-3.31;80.10
13091;DHT22;6611;52.604;13.438;2023-03-01T03:22:48;-3.39;80.28
13091;DHT22;6611;52.604;13.438;2023-03-01T03:27:51;-3.43;80.00
13091;DHT22;6611;52.604;13.438;2023-03-01T03:32:58;-3.50;80.79
13091;DHT22;6611;52.604;13.438;2023-03-01T03:38:03;-3.59;80.78
13091;DHT22;6611;52.604;13.438;2023-03-01T03:43:09;-3.50;79.93
13091;DHT22;6611;52.604;13.438;2023-03-01T03:48:12;-3.44;80.31
13091;DHT22;6611;52.604;13.438;2023-03-01T03:53:14;-3.55;79.78
13091;DHT22;6611;52.604;13.438;2023-03-01T03:58:18;-3.57;79.54
13091;DHT22;6611;52.604;13.438;2023-03-01T04:03:23;-3.72;79.47
13091;DHT22;6611;52.604;13.438;2023-03-01T04:08:26;-3.65;80.37
13091;DHT22;6611;52.604;13.438;2023-03-01T04:13:28;-3.68;80.70
13091;DHT22;6611;52.604;13.438;2023-03-01T04:18:31;-3.71;80.13
13091;DHT22;6611;52.604;13.438;2023-03-01T04:23:33;-3.75;79.57
13091;DHT22;6611;52.604;13.438;2023-03-01T04:28:37;-3.72;80.37
13091;DHT22;6611;52.604;13.438;2023-03-01T04:33:42;-3.65;79.54
13091;DHT22;6611;52.604;13.438;2023-03-01T04:38:44;-3.81;80.18
13091;DHT22;6611;52.604;13.438;2023-03-01T04:43:47;-3.75;80.03
13091;DHT22;6611;52.604;13.438;2023-03-01T04:48:51;-3.78;79.10
13091;DHT22;6611;52.604;13.438;2023-03-01T04:53:52;-3.85;79.52
13091;DHT22;6611;52.604;13.438;2023-03-01T04:58:54;-3.89;79.80
13091;DHT22;6611;52.604;13.438;2023-03-01T05:03:57;-4.00;79.93
13091;DHT22;6611;52.604;13.438;2023-03-01T05:09:03;-4.00;79.95
13091;DHT22;6611;52.604;13.438;2023-03-01T05:14:06;-4.09;79.55
13091;DHT22;6611;52.604;13.438;2023-03-01T05:19:09;-4.21;80.27
13091;DHT22;6611;52.604;13.438;2023-03-01T05:24:15;-4.00;80.29
13091;DHT22;6611;52.604;13.438;2023-03-01T05:29:17;-4.00;80.15
13091;DHT22;6611;52.604;13.438;2023-03-01T05:34:28;-4.06;80.42
13091;DHT22;6611;52.604;13.438;2023-03-01T05:39:30;-4.03;79.62
13091;DHT22;6611;52.604;13.438;2023-03-01T05:44:32;-4.11;80.45
13091;DHT22;6611;52.604;13.438;2023-03-01T05:49:35;-4.10;80.94
13091;DHT22;6611;52.604;13.438;2023-03-01T05:54:37;-4.15;80.40
13091;DHT22;6611;52.604;13.438;2023-03-01T05:59:39;-4.14;79.86
13091;DHT22;6611;52.604;13.438;2023-03-01T06:04:42;-4.11;80.13
13091;DHT22;6611;52.604;13.438;2023-03-01T06:09:44;-4.13;79.99
13091;DHT22;6611;52.604;13.438;2023-03-01T06:14:46;-3.97;80.00
13091;DHT22;6611;52.604;13.438;2023-03-01T06:19:49;-3.96;80.00
13091;DHT22;6611;52.604;13.438;2023-03-01T06:24:51;-3.83;80.00
13091;DHT22;6611;52.604;13.438;2023-03-01T06:29:53;-3.79;80.41
13091;DHT22;6611;52.604;13.438;2023-03-01T06:34:56;-3.64;80.51
13091;DHT22;6611;52.604;13.438;2023-03-01T06:39:58;-3.48;79.88
13091;DHT22;6611;52.604;13.438;2023-03-01T06:45:05;-3.39;79.85
13091;DHT22;6611;52.604;13.438;2023-03-01T06:50:09;-3.05;79.54
13091;DHT22;6611;52.604;13.438;2023-03-01T06:55:12;-2.75;79.12
13091;DHT22;6611;52.604;13.438;2023-03-01T07:00:15;-2.37;78.04
13091;DHT22;6611;52.604;13.438;2023-03-01T07:05:18;-2.13;77.55
13091;DHT22;6611;52.604;13.438;2023-03-01T07:10:20;-1.92;77.71
13091;DHT22;6611;52.604;13.438;2023-03-01T07:15:21;-1.57;76.57
13091;DHT22;6611;52.604;13.438;2023-03-01T07:20:25;-1.29;76.15
13091;DHT22;6611;52.604;13.438;2023-03-01T07:25:26;-1.01;75.76
13091;DHT22;6611;52.604;13.438;2023-03-01T07:30:28;-0.60;75.09
13091;DHT22;6611;52.604;13.438;2023-03-01T07:35:31;-0.40;75.36
13091;DHT22;6611;52.604;13.438;2023-03-01T07:40:33;0.10;73.89
13091;DHT22;6611;52.604;13.438;2023-03-01T07:45:35;0.33;73.20
13091;DHT22;6611;52.604;13.438;2023-03-01T07:50:38;0.55;72.72
13091;DHT22;6611;52.604;13.438;2023-03-01T07:55:40;0.68;72.58
13091;DHT22;6611;52.604;13.438;2023-03-01T08:00:41;0.79;72.92
13091;DHT22;6611;52.604;13.438;2023-03-01T08:05:44;1.00;72.68
13091;DHT22;6611;52.604;13.438;2023-03-01T08:10:46;1.11;72.25
13091;DHT22;6611;52.604;13.438;2023-03-01T08:15:51;1.41;72.23
13091;DHT22;6611;52.604;13.438;2023-03-01T08:20:55;1.70;70.65
13091;DHT22;6611;52.604;13.438;2023-03-01T08:26:03;1.89;71.02
13091;DHT22;6611;52.604;13.438;2023-03-01T08:31:13;2.13;70.89
13091;DHT22;6611;52.604;13.438;2023-03-01T08:36:17;2.63;68.68
13091;DHT22;6611;52.604;13.438;2023-03-01T08:41:21;3.01;67.35
13091;DHT22;6611;52.604;13.438;2023-03-01T08:46:23;3.09;65.43
13091;DHT22;6611;52.604;13.438;2023-03-01T08:51:26;3.42;65.10
13091;DHT22;6611;52.604;13.438;2023-03-01T08:56:30;3.64;63.29
13091;DHT22;6611;52.604;13.438;2023-03-01T09:01:32;3.99;63.16
13091;DHT22;6611;52.604;13.438;2023-03-01T09:06:36;4.21;62.68
13091;DHT22;6611;52.604;13.438;2023-03-01T09:11:38;4.43;62.64
13091;DHT22;6611;52.604;13.438;2023-03-01T09:16:39;4.67;61.92
13091;DHT22;6611;52.604;13.438;2023-03-01T09:21:42;4.73;60.75
13091;DHT22;6611;52.604;13.438;2023-03-01T09:26:55;4.87;59.86
13091;DHT22;6611;52.604;13.438;2023-03-01T09:31:57;4.99;59.44
13091;DHT22;6611;52.604;13.438;2023-03-01T09:37:00;5.09;58.40
13091;DHT22;6611;52.604;13.438;2023-03-01T09:42:03;5.30;57.21
13091;DHT22;6611;52.604;13.438;2023-03-01T09:47:05;5.60;55.35
13091;DHT22;6611;52.604;13.438;2023-03-01T09:52:15;6.01;55.65
13091;DHT22;6611;52.604;13.438;2023-03-01T09:57:27;6.02;54.68
13091;DHT22;6611;52.604;13.438;2023-03-01T10:02:38;6.10;52.30
13091;DHT22;6611;52.604;13.438;2023-03-01T10:07:45;6.26;51.43
13091;DHT22;6611;52.604;13.438;2023-03-01T10:12:50;6.48;51.11
13091;DHT22;6611;52.604;13.438;2023-03-01T10:17:57;6.43;51.88
13091;DHT22;6611;52.604;13.438;2023-03-01T10:23:07;6.54;50.23
13091;DHT22;6611;52.604;13.438;2023-03-01T10:28:16;6.77;49.16
13091;DHT22;6611;52.604;13.438;2023-03-01T10:33:21;6.67;49.85
13091;DHT22;6611;52.604;13.438;2023-03-01T10:38:25;6.67;46.65
13091;DHT22;6611;52.604;13.438;2023-03-01T10:43:32;6.58;48.77
13091;DHT22;6611;52.604;13.438;2023-03-01T10:48:42;6.65;49.41
13091;DHT22;6611;52.604;13.438;2023-03-01T10:53:49;6.79;44.57
13091;DHT22;6611;52.604;13.438;2023-03-01T10:58:59;6.87;45.57
13091;DHT22;6611;52.604;13.438;2023-03-01T11:04:11;7.15;44.54
13091;DHT22;6611;52.604;13.438;2023-03-01T11:09:15;7.54;44.41
13091;DHT22;6611;52.604;13.438;2023-03-01T11:14:20;7.82;41.60
13091;DHT22;6611;52.604;13.438;2023-03-01T11:19:22;8.42;37.71
13091;DHT22;6611;52.604;13.438;2023-03-01T11:24:31;9.21;34.95
13091;DHT22;6611;52.604;13.438;2023-03-01T11:29:38;9.38;35.07
13091;DHT22;6611;52.604;13.438;2023-03-01T11:34:45;9.82;36.22
13091;DHT22;6611;52.604;13.438;2023-03-01T11:39:56;9.52;34.15
13091;DHT22;6611;52.604;13.438;2023-03-01T11:45:02;10.13;36.12
13091;DHT22;6611;52.604;13.438;2023-03-01T11:50:23;9.73;35.80
13091;DHT22;6611;52.604;13.438;2023-03-01T11:55:43;10.28;35.76
13091;DHT22;6611;52.604;13.438;2023-03-01T12:01:06;11.17;37.15
13091;DHT22;6611;52.604;13.438;2023-03-01T12:11:51;11.98;33.26
13091;DHT22;6611;52.604;13.438;2023-03-01T12:17:16;10.93;34.79
13091;DHT22;6611;52.604;13.438;2023-03-01T12:22:29;11.28;33.21
13091;DHT22;6611;52.604;13.438;2023-03-01T12:27:50;11.03;32.74
13091;DHT22;6611;52.604;13.438;2023-03-01T12:33:06;10.93;32.98
13091;DHT22;6611;52.604;13.438;2023-03-01T12:38:22;10.34;34.10
13091;DHT22;6611;52.604;13.438;2023-03-01T12:43:36;10.30;35.12
13091;DHT22;6611;52.604;13.438;2023-03-01T12:48:46;10.13;35.23
13091;DHT22;6611;52.604;13.438;2023-03-01T12:53:50;10.87;36.89
13091;DHT22;6611;52.604;13.438;2023-03-01T12:58:59;10.99;34.81
13091;DHT22;6611;52.604;13.438;2023-03-01T13:04:12;10.80;33.86
13091;DHT22;6611;52.604;13.438;2023-03-01T13:09:21;9.76;35.14
13091;DHT22;6611;52.604;13.438;2023-03-01T13:14:46;9.18;36.52
13091;DHT22;6611;52.604;13.438;2023-03-01T13:19:56;9.79;38.74
13091;DHT22;6611;52.604;13.438;2023-03-01T13:25:02;9.51;35.94
13091;DHT22;6611;52.604;13.438;2023-03-01T13:30:41;9.68;37.62
13091;DHT22;6611;52.604;13.438;2023-03-01T13:35:44;9.58;36.86
13091;DHT22;6611;52.604;13.438;2023-03-01T13:40:58;10.17;36.29
13091;DHT22;6611;52.604;13.438;2023-03-01T13:46:07;9.75;37.21
13091;DHT22;6611;52.604;13.438;2023-03-01T13:51:11;9.35;37.31
13091;DHT22;6611;52.604;13.438;2023-03-01T13:56:16;9.45;39.10
13091;DHT22;6611;52.604;13.438;2023-03-01T14:01:27;9.39;36.70
13091;DHT22;6611;52.604;13.438;2023-03-01T14:06:30;9.90;38.33
13091;DHT22;6611;52.604;13.438;2023-03-01T14:12:05;9.89;35.84
13091;DHT22;6611;52.604;13.438;2023-03-01T14:22:44;9.87;38.08
13091;DHT22;6611;52.604;13.438;2023-03-01T14:27:52;9.82;37.22
13091;DHT22;6611;52.604;13.438;2023-03-01T14:32:58;9.28;37.07
13091;DHT22;6611;52.604;13.438;2023-03-01T14:38:00;9.27;37.23
13091;DHT22;6611;52.604;13.438;2023-03-01T14:43:09;9.01;38.85
13091;DHT22;6611;52.604;13.438;2023-03-01T14:48:13;9.13;40.02
13091;DHT22;6611;52.604;13.438;2023-03-01T14:53:18;9.13;39.90
13091;DHT22;6611;52.604;13.438;2023-03-01T14:58:22;8.73;40.18
13091;DHT22;6611;52.604;13.438;2023-03-01T15:03:29;8.87;41.90
13091;DHT22;6611;52.604;13.438;2023-03-01T15:08:33;8.75;43.00
13091;DHT22;6611;52.604;13.438;2023-03-01T15:13:35;8.34;42.80
13091;DHT22;6611;52.604;13.438;2023-03-01T15:18:44;8.19;42.77
13091;DHT22;6611;52.604;13.438;2023-03-01T15:23:52;8.16;43.85
13091;DHT22;6611;52.604;13.438;2023-03-01T15:28:55;7.97;45.99
13091;DHT22;6611;52.604;13.438;2023-03-01T15:34:19;7.93;46.78
13091;DHT22;6611;52.604;13.438;2023-03-01T15:39:31;7.83;47.31
13091;DHT22;6611;52.604;13.438;2023-03-01T15:44:39;7.64;49.75
13091;DHT22;6611;52.604;13.438;2023-03-01T15:49:43;7.68;48.37
13091;DHT22;6611;52.604;13.438;2023-03-01T15:54:45;7.35;48.62
13091;DHT22;6611;52.604;13.438;2023-03-01T15:59:47;7.23;51.11
13091;DHT22;6611;52.604;13.438;2023-03-01T16:04:51;7.16;51.59
13091;DHT22;6611;52.604;13.438;2023-03-01T16:09:53;6.98;53.69
13091;DHT22;6611;52.604;13.438;2023-03-01T16:14:55;6.77;52.61
13091;DHT22;6611;52.604;13.438;2023-03-01T16:19:59;6.55;54.01
13091;DHT22;6611;52.604;13.438;2023-03-01T16:25:01;6.32;55.09
13091;DHT22;6611;52.604;13.438;2023-03-01T16:30:04;6.05;55.20
13091;DHT22;6611;52.604;13.438;2023-03-01T16:35:10;5.77;57.42
13091;DHT22;6611;52.604;13.438;2023-03-01T16:40:17;5.33;58.32
13091;DHT22;6611;52.604;13.438;2023-03-01T16:45:19;5.15;58.33
13091;DHT22;6611;52.604;13.438;2023-03-01T16:50:22;4.89;59.97
13091;DHT22;6611;52.604;13.438;2023-03-01T16:55:24;4.61;60.71
13091;DHT22;6611;52.604;13.438;2023-03-01T17:00:26;4.45;61.89
13091;DHT22;6611;52.604;13.438;2023-03-01T17:05:29;4.33;62.19
13091;DHT22;6611;52.604;13.438;2023-03-01T17:10:32;4.16;63.24
13091;DHT22;6611;52.604;13.438;2023-03-01T17:15:34;4.01;64.04
13091;DHT22;6611;52.604;13.438;2023-03-01T17:20:37;3.80;63.88
13091;DHT22;6611;52.604;13.438;2023-03-01T17:25:41;3.62;64.43
13091;DHT22;6611;52.604;13.438;2023-03-01T17:30:44;3.40;65.28
13091;DHT22;6611;52.604;13.438;2023-03-01T17:35:49;3.17;66.44
13091;DHT22;6611;52.604;13.438;2023-03-01T17:40:50;3.00;67.46
13091;DHT22;6611;52.604;13.438;2023-03-01T17:45:52;2.94;67.28
13091;DHT22;6611;52.604;13.438;2023-03-01T17:50:55;2.90;67.46
13091;DHT22;6611;52.604;13.438;2023-03-01T17:56:01;2.76;68.27
13091;DHT22;6611;52.604;13.438;2023-03-01T18:01:11;2.73;68.42
13091;DHT22;6611;52.604;13.438;2023-03-01T18:06:16;2.62;69.00
13091;DHT22;6611;52.604;13.438;2023-03-01T18:11:18;2.44;69.27
13091;DHT22;6611;52.604;13.438;2023-03-01T18:16:21;2.46;68.90
13091;DHT22;6611;52.604;13.438;2023-03-01T18:21:25;2.36;69.01
13091;DHT22;6611;52.604;13.438;2023-03-01T18:26:26;2.14;70.29
13091;DHT22;6611;52.604;13.438;2023-03-01T18:31:28;2.09;70.13
13091;DHT22;6611;52.604;13.438;2023-03-01T18:36:34;1.99;70.72
13091;DHT22;6611;52.604;13.438;2023-03-01T18:41:36;1.87;71.20
13091;DHT22;6611;52.604;13.438;2023-03-01T18:46:38;1.62;72.50
13091;DHT22;6611;52.604;13.438;2023-03-01T18:51:42;1.59;72.43
13091;DHT22;6611;52.604;13.438;2023-03-01T18:56:44;1.62;72.36
13091;DHT22;6611;52.604;13.438;2023-03-01T19:01:46;1.54;73.03
13091;DHT22;6611;52.604;13.438;2023-03-01T19:06:49;1.39;73.19
13091;DHT22;6611;52.604;13.438;2023-03-01T19:11:50;1.32;73.11
13091;DHT22;6611;52.604;13.438;2023-03-01T19:16:52;1.27;73.53
13091;DHT22;6611;52.604;13.438;2023-03-01T19:21:56;1.07;74.38
13091;DHT22;6611;52.604;13.438;2023-03-01T19:26:57;1.04;74.55
13091;DHT22;6611;52.604;13.438;2023-03-01T19:31:59;0.99;74.63
13091;DHT22;6611;52.604;13.438;2023-03-01T19:37:02;0.96;74.19
13091;DHT22;6611;52.604;13.438;2023-03-01T19:42:04;0.78;75.43
13091;DHT22;6611;52.604;13.438;2023-03-01T19:47:06;0.93;74.69
13091;DHT22;6611;52.604;13.438;2023-03-01T19:52:09;0.93;74.87
13091;DHT22;6611;52.604;13.438;2023-03-01T19:57:10;0.95;75.20
13091;DHT22;6611;52.604;13.438;2023-03-01T20:02:12;0.90;75.03
13091;DHT22;6611;52.604;13.438;2023-03-01T20:07:15;0.85;75.24
13091;DHT22;6611;52.604;13.438;2023-03-01T20:12:18;0.72;75.81
13091;DHT22;6611;52.604;13.438;2023-03-01T20:17:19;0.58;75.94
13091;DHT22;6611;52.604;13.438;2023-03-01T20:22:23;0.55;76.00
13091;DHT22;6611;52.604;13.438;2023-03-01T20:27:24;0.57;76.28
13091;DHT22;6611;52.604;13.438;2023-03-01T20:32:26;0.47;76.89
13091;DHT22;6611;52.604;13.438;2023-03-01T20:37:30;0.37;76.87
13091;DHT22;6611;52.604;13.438;2023-03-01T20:42:32;0.50;76.38
13091;DHT22;6611;52.604;13.438;2023-03-01T20:47:33;0.44;76.73
13091;DHT22;6611;52.604;13.438;2023-03-01T20:52:36;0.42;76.74
13091;DHT22;6611;52.604;13.438;2023-03-01T20:57:38;0.25;77.31
13091;DHT22;6611;52.604;13.438;2023-03-01T21:02:40;0.24;77.20
13091;DHT22;6611;52.604;13.438;2023-03-01T21:07:44;0.20;77.59
13091;DHT22;6611;52.604;13.438;2023-03-01T21:12:46;0.16;77.77
13091;DHT22;6611;52.604;13.438;2023-03-01T21:17:48;0.14;77.79
13091;DHT22;6611;52.604;13.438;2023-03-01T21:22:51;0.09;77.82
13091;DHT22;6611;52.604;13.438;2023-03-01T21:27:52;0.06;77.89
13091;DHT22;6611;52.604;13.438;2023-03-01T21:32:54;0.05;78.14
13091;DHT22;6611;52.604;13.438;2023-03-01T21:37:57;0.05;78.32
13091;DHT22;6611;52.604;13.438;2023-03-01T21:42:59;0.00;77.70
13091;DHT22;6611;52.604;13.438;2023-03-01T21:48:00;-0.05;78.18
13091;DHT22;6611;52.604;13.438;2023-03-01T21:53:03;-0.04;78.21
13091;DHT22;6611;52.604;13.438;2023-03-01T21:58:05;-0.11;78.19
13091;DHT22;6611;52.604;13.438;2023-03-01T22:03:08;-0.08;78.36
13091;DHT22;6611;52.604;13.438;2023-03-01T22:08:11;-0.14;78.84
13091;DHT22;6611;52.604;13.438;2023-03-01T22:13:12;-0.21;78.77
13091;DHT22;6611;52.604;13.438;2023-03-01T22:18:14;-0.25;78.44
13091;DHT22;6611;52.604;13.438;2023-03-01T22:23:17;-0.21;78.64
13091;DHT22;6611;52.604;13.438;2023-03-01T22:28:19;-0.26;78.62
13091;DHT22;6611;52.604;13.438;2023-03-01T22:33:20;-0.28;78.54
13091;DHT22;6611;52.604;13.438;2023-03-01T22:38:23;-0.36;78.98
13091;DHT22;6611;52.604;13.438;2023-03-01T22:43:26;-0.36;78.72
13091;DHT22;6611;52.604;13.438;2023-03-01T22:48:28;-0.39;78.76
13091;DHT22;6611;52.604;13.438;2023-03-01T22:53:31;-0.40;78.59
13091;DHT22;6611;52.604;13.438;2023-03-01T22:58:33;-0.43;78.59
13091;DHT22;6611;52.604;13.438;2023-03-01T23:03:35;-0.38;78.69
13091;DHT22;6611;52.604;13.438;2023-03-01T23:08:38;-0.43;79.07
13091;DHT22;6611;52.604;13.438;2023-03-01T23:13:40;-0.35;77.98
13091;DHT22;6611;52.604;13.438;2023-03-01T23:18:43;-0.45;78.68
13091;DHT22;6611;52.604;13.438;2023-03-01T23:23:47;-0.48;78.82
13091;DHT22;6611;52.604;13.438;2023-03-01T23:28:49;-0.49;78.78
13091;DHT22;6611;52.604;13.438;2023-03-01T23:33:51;-0.50;78.62
13091;DHT22;6611;52.604;13.438;2023-03-01T23:38:56;-0.52;79.14
13091;DHT22;6611;52.604;13.438;2023-03-01T23:43:59;-0.50;78.80
13091;DHT22;6611;52.604;13.438;2023-03-01T23:49:01;-0.60;79.42
13091;DHT22;6611;52.604;13.438;2023-03-01T23:54:05;-0.59;79.32
13091;DHT22;6611;52.604;13.438;2023-03-01T23:59:08;-0.70;79.73
